sensor_id;sensor_type;location;lat;lon;timestamp;P1;durP1;ratioP1;P2;durP2;ratioP2
75035;SDS011;64247;51.540;5.854;2023-03-19T00:01:55;1.75;;;1.48;;
75035;SDS011;64247;51.540;5.854;2023-03-19T00:03:56;2.88;;;1.95;;
75035;SDS011;64247;51.540;5.854;2023-03-19T00:05:57;1.98;;;1.77;;
75035;SDS011;64247;51.540;5.854;2023-03-19T00:07:58;2.58;;;1.65;;
75035;SDS011;64247;51.540;5.854;2023-03-19T00:09:59;1.48;;;1.38;;
75035;SDS011;64247;51.540;5.854;2023-03-19T00:12:00;2.15;;;1.73;;
75035;SDS011;64247;51.540;5.854;2023-03-19T00:14:00;2.33;;;1.88;;
75035;SDS011;64247;51.540;5.854;2023-03-19T00:16:02;2.28;;;2.05;;
75035;SDS011;64247;51.540;5.854;2023-03-19T00:18:03;1.85;;;1.67;;
75035;SDS011;64247;51.540;5.854;2023-03-19T00:20:05;4.22;;;1.73;;
75035;SDS011;64247;51.540;5.854;2023-03-19T00:22:08;4.22;;;2.13;;
75035;SDS011;64247;51.540;5.854;2023-03-19T00:24:09;2.10;;;1.83;;
75035;SDS011;64247;51.540;5.854;2023-03-19T00:26:10;4.18;;;2.10;;
75035;SDS011;64247;51.540;5.854;2023-03-19T00:28:11;2.83;;;2.45;;
75035;SDS011;64247;51.540;5.854;2023-03-19T00:30:12;2.35;;;1.90;;
75035;SDS011;64247;51.540;5.854;2023-03-19T00:32:14;1.90;;;1.65;;
75035;SDS011;64247;51.540;5.854;2023-03-19T00:34:15;2.65;;;2.08;;
75035;SDS011;64247;51.540;5.854;2023-03-19T00:36:22;2.15;;;1.67;;
75035;SDS011;64247;51.540;5.854;2023-03-19T00:38:26;2.55;;;1.80;;
75035;SDS011;64247;51.540;5.854;2023-03-19T00:40:27;3.20;;;2.28;;
75035;SDS011;64247;51.540;5.854;2023-03-19T00:42:28;3.03;;;1.80;;
75035;SDS011;64247;51.540;5.854;2023-03-19T00:44:30;2.53;;;2.33;;
75035;SDS011;64247;51.540;5.854;2023-03-19T00:46:31;4.93;;;2.40;;
75035;SDS011;64247;51.540;5.854;2023-03-19T00:48:32;2.60;;;2.20;;
75035;SDS011;64247;51.540;5.854;2023-03-19T00:50:33;5.88;;;2.70;;
75035;SDS011;64247;51.540;5.854;2023-03-19T00:52:35;5.35;;;2.55;;
75035;SDS011;64247;51.540;5.854;2023-03-19T00:54:36;4.40;;;2.58;;
75035;SDS011;64247;51.540;5.854;2023-03-19T00:56:37;2.75;;;2.28;;
75035;SDS011;64247;51.540;5.854;2023-03-19T00:58:38;4.43;;;2.55;;
75035;SDS011;64247;51.540;5.854;2023-03-19T01:00:40;4.03;;;3.00;;
75035;SDS011;64247;51.540;5.854;2023-03-19T01:02:42;3.45;;;2.92;;
75035;SDS011;64247;51.540;5.854;2023-03-19T01:04:43;4.38;;;2.88;;
75035;SDS011;64247;51.540;5.854;2023-03-19T01:06:47;2.95;;;2.20;;
75035;SDS011;64247;51.540;5.854;2023-03-19T01:08:49;4.22;;;3.40;;
75035;SDS011;64247;51.540;5.854;2023-03-19T01:10:51;3.20;;;2.88;;
75035;SDS011;64247;51.540;5.854;2023-03-19T01:12:52;3.80;;;2.78;;
75035;SDS011;64247;51.540;5.854;2023-03-19T01:14:53;4.05;;;3.00;;
75035;SDS011;64247;51.540;5.854;2023-03-19T01:16:54;4.13;;;3.63;;
75035;SDS011;64247;51.540;5.854;2023-03-19T01:18:56;4.90;;;3.65;;
75035;SDS011;64247;51.540;5.854;2023-03-19T01:20:57;4.72;;;2.95;;
75035;SDS011;64247;51.540;5.854;2023-03-19T01:22:59;3.80;;;2.67;;
75035;SDS011;64247;51.540;5.854;2023-03-19T01:25:01;5.38;;;3.15;;
75035;SDS011;64247;51.540;5.854;2023-03-19T01:27:04;3.65;;;2.80;;
75035;SDS011;64247;51.540;5.854;2023-03-19T01:29:07;3.40;;;3.03;;
75035;SDS011;64247;51.540;5.854;2023-03-19T01:31:09;3.65;;;2.72;;
75035;SDS011;64247;51.540;5.854;2023-03-19T01:33:29;4.53;;;3.50;;
75035;SDS011;64247;51.540;5.854;2023-03-19T01:35:36;5.60;;;3.40;;
75035;SDS011;64247;51.540;5.854;2023-03-19T01:37:37;5.25;;;3.15;;
75035;SDS011;64247;51.540;5.854;2023-03-19T01:39:38;8.10;;;3.83;;
75035;SDS011;64247;51.540;5.854;2023-03-19T01:41:43;5.68;;;3.70;;
75035;SDS011;64247;51.540;5.854;2023-03-19T01:44:21;3.42;;;2.85;;
75035;SDS011;64247;51.540;5.854;2023-03-19T01:47:32;4.55;;;3.00;;
75035;SDS011;64247;51.540;5.854;2023-03-19T01:49:57;5.53;;;3.40;;
75035;SDS011;64247;51.540;5.854;2023-03-19T01:52:00;3.78;;;2.50;;
75035;SDS011;64247;51.540;5.854;2023-03-19T01:54:24;4.50;;;3.17;;
75035;SDS011;64247;51.540;5.854;2023-03-19T01:56:49;4.78;;;3.25;;
75035;SDS011;64247;51.540;5.854;2023-03-19T01:59:19;5.55;;;3.60;;
75035;SDS011;64247;51.540;5.854;2023-03-19T02:02:14;4.60;;;2.33;;
75035;SDS011;64247;51.540;5.854;2023-03-19T02:04:48;4.25;;;3.72;;
75035;SDS011;64247;51.540;5.854;2023-03-19T02:06:58;3.60;;;3.30;;
75035;SDS011;64247;51.540;5.854;2023-03-19T02:09:03;5.07;;;3.08;;
75035;SDS011;64247;51.540;5.854;2023-03-19T02:11:04;5.00;;;3.35;;
75035;SDS011;64247;51.540;5.854;2023-03-19T02:13:06;4.78;;;3.60;;
75035;SDS011;64247;51.540;5.854;2023-03-19T02:15:08;5.40;;;3.38;;
75035;SDS011;64247;51.540;5.854;2023-03-19T02:17:09;4.93;;;3.72;;
75035;SDS011;64247;51.540;5.854;2023-03-19T02:19:12;4.70;;;3.13;;
75035;SDS011;64247;51.540;5.854;2023-03-19T02:21:23;5.10;;;3.38;;
75035;SDS011;64247;51.540;5.854;2023-03-19T02:23:42;4.68;;;3.80;;
75035;SDS011;64247;51.540;5.854;2023-03-19T02:26:42;8.88;;;4.70;;
75035;SDS011;64247;51.540;5.854;2023-03-19T02:28:46;4.93;;;3.85;;
75035;SDS011;64247;51.540;5.854;2023-03-19T02:30:54;8.40;;;4.20;;
75035;SDS011;64247;51.540;5.854;2023-03-19T02:32:55;5.90;;;4.00;;
75035;SDS011;64247;51.540;5.854;2023-03-19T02:34:57;5.65;;;4.07;;
75035;SDS011;64247;51.540;5.854;2023-03-19T02:36:59;5.22;;;4.15;;
75035;SDS011;64247;51.540;5.854;2023-03-19T02:39:09;4.93;;;4.10;;
75035;SDS011;64247;51.540;5.854;2023-03-19T02:41:23;4.35;;;3.65;;
75035;SDS011;64247;51.540;5.854;2023-03-19T02:43:26;4.40;;;3.85;;
75035;SDS011;64247;51.540;5.854;2023-03-19T02:45:29;6.18;;;4.03;;
75035;SDS011;64247;51.540;5.854;2023-03-19T02:47:31;8.63;;;4.53;;
75035;SDS011;64247;51.540;5.854;2023-03-19T02:49:32;5.03;;;4.05;;
75035;SDS011;64247;51.540;5.854;2023-03-19T02:51:33;5.72;;;4.05;;
75035;SDS011;64247;51.540;5.854;2023-03-19T02:53:36;5.47;;;4.30;;
75035;SDS011;64247;51.540;5.854;2023-03-19T02:55:37;4.75;;;3.60;;
75035;SDS011;64247;51.540;5.854;2023-03-19T02:57:38;6.13;;;3.97;;
75035;SDS011;64247;51.540;5.854;2023-03-19T02:59:39;4.07;;;3.65;;
75035;SDS011;64247;51.540;5.854;2023-03-19T03:01:40;5.78;;;3.78;;
75035;SDS011;64247;51.540;5.854;2023-03-19T03:03:41;5.40;;;4.22;;
75035;SDS011;64247;51.540;5.854;2023-03-19T03:05:42;5.10;;;4.35;;
75035;SDS011;64247;51.540;5.854;2023-03-19T03:07:43;5.97;;;3.58;;
75035;SDS011;64247;51.540;5.854;2023-03-19T03:09:44;5.00;;;3.47;;
75035;SDS011;64247;51.540;5.854;2023-03-19T03:11:45;4.72;;;3.60;;
75035;SDS011;64247;51.540;5.854;2023-03-19T03:13:47;4.65;;;3.90;;
75035;SDS011;64247;51.540;5.854;2023-03-19T03:15:48;4.63;;;3.90;;
75035;SDS011;64247;51.540;5.854;2023-03-19T03:17:49;6.20;;;4.07;;
75035;SDS011;64247;51.540;5.854;2023-03-19T03:19:50;7.13;;;4.10;;
75035;SDS011;64247;51.540;5.854;2023-03-19T03:21:51;6.38;;;3.95;;
75035;SDS011;64247;51.540;5.854;2023-03-19T03:23:52;4.22;;;3.22;;
75035;SDS011;64247;51.540;5.854;2023-03-19T03:25:53;5.20;;;3.80;;
75035;SDS011;64247;51.540;5.854;2023-03-19T03:27:54;4.78;;;3.60;;
75035;SDS011;64247;51.540;5.854;2023-03-19T03:29:56;5.97;;;4.18;;
75035;SDS011;64247;51.540;5.854;2023-03-19T03:31:57;5.72;;;3.70;;
75035;SDS011;64247;51.540;5.854;2023-03-19T03:33:58;7.40;;;4.13;;
75035;SDS011;64247;51.540;5.854;2023-03-19T03:35:59;5.72;;;3.90;;
75035;SDS011;64247;51.540;5.854;2023-03-19T03:38:00;6.47;;;3.60;;
75035;SDS011;64247;51.540;5.854;2023-03-19T03:40:03;6.63;;;3.63;;
75035;SDS011;64247;51.540;5.854;2023-03-19T03:42:09;6.55;;;3.65;;
75035;SDS011;64247;51.540;5.854;2023-03-19T03:44:12;5.57;;;3.63;;
75035;SDS011;64247;51.540;5.854;2023-03-19T03:46:14;4.18;;;3.50;;
75035;SDS011;64247;51.540;5.854;2023-03-19T03:48:16;3.67;;;3.15;;
75035;SDS011;64247;51.540;5.854;2023-03-19T03:50:17;5.60;;;3.55;;
75035;SDS011;64247;51.540;5.854;2023-03-19T03:52:20;6.63;;;3.67;;
75035;SDS011;64247;51.540;5.854;2023-03-19T03:54:22;6.07;;;3.80;;
75035;SDS011;64247;51.540;5.854;2023-03-19T03:56:22;4.88;;;3.72;;
75035;SDS011;64247;51.540;5.854;2023-03-19T03:58:23;7.90;;;4.28;;
75035;SDS011;64247;51.540;5.854;2023-03-19T04:00:25;7.25;;;4.32;;
75035;SDS011;64247;51.540;5.854;2023-03-19T04:02:26;6.03;;;4.13;;
75035;SDS011;64247;51.540;5.854;2023-03-19T04:04:27;7.10;;;4.50;;
75035;SDS011;64247;51.540;5.854;2023-03-19T04:06:28;4.93;;;3.65;;
75035;SDS011;64247;51.540;5.854;2023-03-19T04:08:53;5.35;;;4.35;;
75035;SDS011;64247;51.540;5.854;2023-03-19T04:10:55;6.63;;;4.43;;
75035;SDS011;64247;51.540;5.854;2023-03-19T04:12:56;5.20;;;3.75;;
75035;SDS011;64247;51.540;5.854;2023-03-19T04:14:57;6.60;;;4.72;;
75035;SDS011;64247;51.540;5.854;2023-03-19T04:16:58;5.18;;;4.47;;
75035;SDS011;64247;51.540;5.854;2023-03-19T04:18:59;5.60;;;4.47;;
75035;SDS011;64247;51.540;5.854;2023-03-19T04:21:01;7.80;;;5.10;;
75035;SDS011;64247;51.540;5.854;2023-03-19T04:23:04;7.47;;;4.22;;
75035;SDS011;64247;51.540;5.854;2023-03-19T04:25:05;7.38;;;5.10;;
75035;SDS011;64247;51.540;5.854;2023-03-19T04:27:08;5.25;;;4.50;;
75035;SDS011;64247;51.540;5.854;2023-03-19T04:29:11;6.90;;;4.40;;
75035;SDS011;64247;51.540;5.854;2023-03-19T04:31:11;8.45;;;4.65;;
75035;SDS011;64247;51.540;5.854;2023-03-19T04:33:16;6.68;;;4.78;;
75035;SDS011;64247;51.540;5.854;2023-03-19T04:35:18;7.15;;;4.60;;
75035;SDS011;64247;51.540;5.854;2023-03-19T04:37:19;7.15;;;4.63;;
75035;SDS011;64247;51.540;5.854;2023-03-19T04:39:23;6.57;;;4.32;;
75035;SDS011;64247;51.540;5.854;2023-03-19T04:41:25;9.13;;;5.93;;
75035;SDS011;64247;51.540;5.854;2023-03-19T04:43:45;7.78;;;4.72;;
75035;SDS011;64247;51.540;5.854;2023-03-19T04:45:46;7.60;;;4.72;;
75035;SDS011;64247;51.540;5.854;2023-03-19T04:47:47;7.88;;;4.80;;
75035;SDS011;64247;51.540;5.854;2023-03-19T04:49:49;8.35;;;4.75;;
75035;SDS011;64247;51.540;5.854;2023-03-19T04:51:53;8.25;;;5.13;;
75035;SDS011;64247;51.540;5.854;2023-03-19T04:53:54;9.85;;;5.10;;
75035;SDS011;64247;51.540;5.854;2023-03-19T04:55:55;6.97;;;5.28;;
75035;SDS011;64247;51.540;5.854;2023-03-19T04:57:56;6.22;;;4.97;;
75035;SDS011;64247;51.540;5.854;2023-03-19T05:00:20;6.45;;;4.85;;
75035;SDS011;64247;51.540;5.854;2023-03-19T05:02:22;7.65;;;5.20;;
75035;SDS011;64247;51.540;5.854;2023-03-19T05:04:26;7.68;;;5.47;;
75035;SDS011;64247;51.540;5.854;2023-03-19T05:06:34;8.07;;;5.65;;
75035;SDS011;64247;51.540;5.854;2023-03-19T05:08:37;8.30;;;5.50;;
75035;SDS011;64247;51.540;5.854;2023-03-19T05:10:38;10.30;;;6.93;;
75035;SDS011;64247;51.540;5.854;2023-03-19T05:12:40;7.72;;;5.57;;
75035;SDS011;64247;51.540;5.854;2023-03-19T05:14:43;9.75;;;5.85;;
75035;SDS011;64247;51.540;5.854;2023-03-19T05:16:49;9.05;;;5.40;;
75035;SDS011;64247;51.540;5.854;2023-03-19T05:18:51;9.38;;;5.70;;
75035;SDS011;64247;51.540;5.854;2023-03-19T05:20:52;8.95;;;5.30;;
75035;SDS011;64247;51.540;5.854;2023-03-19T05:22:56;8.82;;;4.82;;
75035;SDS011;64247;51.540;5.854;2023-03-19T05:25:07;10.93;;;5.90;;
75035;SDS011;64247;51.540;5.854;2023-03-19T05:27:08;10.25;;;5.80;;
75035;SDS011;64247;51.540;5.854;2023-03-19T05:31:52;12.15;;;5.85;;
75035;SDS011;64247;51.540;5.854;2023-03-19T05:33:54;8.95;;;5.80;;
75035;SDS011;64247;51.540;5.854;2023-03-19T05:35:56;8.90;;;5.85;;
75035;SDS011;64247;51.540;5.854;2023-03-19T05:38:16;9.18;;;5.63;;
75035;SDS011;64247;51.540;5.854;2023-03-19T05:40:23;9.73;;;5.80;;
75035;SDS011;64247;51.540;5.854;2023-03-19T05:42:25;7.63;;;4.55;;
75035;SDS011;64247;51.540;5.854;2023-03-19T05:44:29;9.10;;;5.95;;
75035;SDS011;64247;51.540;5.854;2023-03-19T05:46:35;8.13;;;5.70;;
75035;SDS011;64247;51.540;5.854;2023-03-19T05:48:37;7.43;;;5.38;;
75035;SDS011;64247;51.540;5.854;2023-03-19T05:50:38;9.57;;;5.15;;
75035;SDS011;64247;51.540;5.854;2023-03-19T05:52:52;8.45;;;5.60;;
75035;SDS011;64247;51.540;5.854;2023-03-19T05:54:53;12.35;;;6.25;;
75035;SDS011;64247;51.540;5.854;2023-03-19T05:57:11;9.43;;;6.13;;
75035;SDS011;64247;51.540;5.854;2023-03-19T05:59:31;13.32;;;6.82;;
75035;SDS011;64247;51.540;5.854;2023-03-19T06:02:02;8.65;;;6.10;;
75035;SDS011;64247;51.540;5.854;2023-03-19T06:04:04;8.65;;;6.00;;
75035;SDS011;64247;51.540;5.854;2023-03-19T06:06:06;9.20;;;6.15;;
75035;SDS011;64247;51.540;5.854;2023-03-19T06:08:12;10.05;;;5.75;;
75035;SDS011;64247;51.540;5.854;2023-03-19T06:10:26;8.90;;;5.47;;
75035;SDS011;64247;51.540;5.854;2023-03-19T06:12:30;8.93;;;5.15;;
75035;SDS011;64247;51.540;5.854;2023-03-19T06:15:03;10.25;;;5.85;;
75035;SDS011;64247;51.540;5.854;2023-03-19T06:17:23;13.95;;;7.03;;
75035;SDS011;64247;51.540;5.854;2023-03-19T06:19:24;11.07;;;6.90;;
75035;SDS011;64247;51.540;5.854;2023-03-19T06:21:25;13.90;;;7.85;;
75035;SDS011;64247;51.540;5.854;2023-03-19T06:23:30;12.88;;;7.55;;
75035;SDS011;64247;51.540;5.854;2023-03-19T06:25:31;13.27;;;8.00;;
75035;SDS011;64247;51.540;5.854;2023-03-19T06:27:32;13.90;;;7.28;;
75035;SDS011;64247;51.540;5.854;2023-03-19T06:29:46;13.13;;;7.93;;
75035;SDS011;64247;51.540;5.854;2023-03-19T06:31:54;13.98;;;7.60;;
75035;SDS011;64247;51.540;5.854;2023-03-19T06:34:08;12.25;;;7.30;;
75035;SDS011;64247;51.540;5.854;2023-03-19T06:36:15;12.18;;;7.82;;
75035;SDS011;64247;51.540;5.854;2023-03-19T06:38:17;14.27;;;8.70;;
75035;SDS011;64247;51.540;5.854;2023-03-19T06:40:17;13.05;;;8.10;;
75035;SDS011;64247;51.540;5.854;2023-03-19T06:42:21;12.88;;;8.00;;
75035;SDS011;64247;51.540;5.854;2023-03-19T06:44:23;14.38;;;7.93;;
75035;SDS011;64247;51.540;5.854;2023-03-19T06:46:24;15.38;;;8.38;;
75035;SDS011;64247;51.540;5.854;2023-03-19T06:48:25;12.15;;;8.13;;
75035;SDS011;64247;51.540;5.854;2023-03-19T06:50:26;11.18;;;8.07;;
75035;SDS011;64247;51.540;5.854;2023-03-19T06:52:27;13.00;;;8.23;;
75035;SDS011;64247;51.540;5.854;2023-03-19T06:54:28;14.50;;;8.15;;
75035;SDS011;64247;51.540;5.854;2023-03-19T06:56:29;15.05;;;8.65;;
75035;SDS011;64247;51.540;5.854;2023-03-19T06:58:30;16.40;;;8.80;;
75035;SDS011;64247;51.540;5.854;2023-03-19T07:00:33;17.60;;;9.02;;
75035;SDS011;64247;51.540;5.854;2023-03-19T07:02:34;14.57;;;9.18;;
75035;SDS011;64247;51.540;5.854;2023-03-19T07:04:35;14.27;;;9.85;;
75035;SDS011;64247;51.540;5.854;2023-03-19T07:06:36;15.60;;;8.50;;
75035;SDS011;64247;51.540;5.854;2023-03-19T07:08:37;19.05;;;10.90;;
75035;SDS011;64247;51.540;5.854;2023-03-19T07:10:38;10.45;;;7.45;;
75035;SDS011;64247;51.540;5.854;2023-03-19T07:12:39;14.55;;;9.07;;
75035;SDS011;64247;51.540;5.854;2023-03-19T07:14:40;13.35;;;9.07;;
75035;SDS011;64247;51.540;5.854;2023-03-19T07:16:40;12.57;;;8.15;;
75035;SDS011;64247;51.540;5.854;2023-03-19T07:18:41;14.75;;;8.52;;
75035;SDS011;64247;51.540;5.854;2023-03-19T07:20:42;20.38;;;11.77;;
75035;SDS011;64247;51.540;5.854;2023-03-19T07:22:43;13.95;;;9.35;;
75035;SDS011;64247;51.540;5.854;2023-03-19T07:24:44;14.38;;;8.95;;
75035;SDS011;64247;51.540;5.854;2023-03-19T07:26:45;15.10;;;9.15;;
75035;SDS011;64247;51.540;5.854;2023-03-19T07:28:47;16.92;;;10.00;;
75035;SDS011;64247;51.540;5.854;2023-03-19T07:30:49;17.15;;;9.75;;
75035;SDS011;64247;51.540;5.854;2023-03-19T07:32:53;16.50;;;10.23;;
75035;SDS011;64247;51.540;5.854;2023-03-19T07:34:54;16.92;;;10.00;;
75035;SDS011;64247;51.540;5.854;2023-03-19T07:36:55;15.27;;;9.88;;
75035;SDS011;64247;51.540;5.854;2023-03-19T07:38:56;15.45;;;8.90;;
75035;SDS011;64247;51.540;5.854;2023-03-19T07:40:57;17.33;;;9.57;;
75035;SDS011;64247;51.540;5.854;2023-03-19T07:42:58;16.48;;;9.38;;
75035;SDS011;64247;51.540;5.854;2023-03-19T07:44:59;13.32;;;8.93;;
75035;SDS011;64247;51.540;5.854;2023-03-19T07:47:01;18.60;;;9.40;;
75035;SDS011;64247;51.540;5.854;2023-03-19T07:49:02;17.88;;;9.95;;
75035;SDS011;64247;51.540;5.854;2023-03-19T07:51:03;16.52;;;9.90;;
75035;SDS011;64247;51.540;5.854;2023-03-19T07:53:04;15.93;;;9.90;;
75035;SDS011;64247;51.540;5.854;2023-03-19T07:55:05;15.15;;;9.38;;
75035;SDS011;64247;51.540;5.854;2023-03-19T07:57:07;13.50;;;8.65;;
75035;SDS011;64247;51.540;5.854;2023-03-19T07:59:08;13.75;;;9.35;;
75035;SDS011;64247;51.540;5.854;2023-03-19T08:01:09;16.85;;;9.45;;
75035;SDS011;64247;51.540;5.854;2023-03-19T08:03:10;15.98;;;9.80;;
75035;SDS011;64247;51.540;5.854;2023-03-19T08:05:11;14.93;;;9.13;;
75035;SDS011;64247;51.540;5.854;2023-03-19T08:07:12;15.93;;;9.98;;
75035;SDS011;64247;51.540;5.854;2023-03-19T08:09:13;17.92;;;10.55;;
75035;SDS011;64247;51.540;5.854;2023-03-19T08:11:14;14.65;;;8.43;;
75035;SDS011;64247;51.540;5.854;2023-03-19T08:13:16;20.80;;;11.77;;
75035;SDS011;64247;51.540;5.854;2023-03-19T08:15:17;17.00;;;9.57;;
75035;SDS011;64247;51.540;5.854;2023-03-19T08:17:18;20.15;;;11.93;;
75035;SDS011;64247;51.540;5.854;2023-03-19T08:19:19;18.83;;;12.15;;
75035;SDS011;64247;51.540;5.854;2023-03-19T08:21:20;19.15;;;10.70;;
75035;SDS011;64247;51.540;5.854;2023-03-19T08:23:21;21.45;;;12.65;;
75035;SDS011;64247;51.540;5.854;2023-03-19T08:25:23;19.73;;;11.05;;
75035;SDS011;64247;51.540;5.854;2023-03-19T08:27:25;17.35;;;9.52;;
75035;SDS011;64247;51.540;5.854;2023-03-19T08:29:27;16.90;;;9.90;;
75035;SDS011;64247;51.540;5.854;2023-03-19T08:31:28;19.52;;;11.23;;
75035;SDS011;64247;51.540;5.854;2023-03-19T08:33:30;19.55;;;10.65;;
75035;SDS011;64247;51.540;5.854;2023-03-19T08:35:30;13.95;;;9.23;;
75035;SDS011;64247;51.540;5.854;2023-03-19T08:37:31;16.10;;;10.40;;
75035;SDS011;64247;51.540;5.854;2023-03-19T08:39:32;17.30;;;9.57;;
75035;SDS011;64247;51.540;5.854;2023-03-19T08:41:34;15.48;;;8.85;;
75035;SDS011;64247;51.540;5.854;2023-03-19T08:43:35;14.30;;;7.43;;
75035;SDS011;64247;51.540;5.854;2023-03-19T08:45:37;13.38;;;7.40;;
75035;SDS011;64247;51.540;5.854;2023-03-19T08:47:38;12.55;;;7.45;;
75035;SDS011;64247;51.540;5.854;2023-03-19T08:49:40;14.80;;;8.35;;
75035;SDS011;64247;51.540;5.854;2023-03-19T08:51:41;14.25;;;7.95;;
75035;SDS011;64247;51.540;5.854;2023-03-19T08:53:42;13.77;;;7.60;;
75035;SDS011;64247;51.540;5.854;2023-03-19T08:55:43;11.60;;;7.03;;
75035;SDS011;64247;51.540;5.854;2023-03-19T08:57:44;10.65;;;6.47;;
75035;SDS011;64247;51.540;5.854;2023-03-19T08:59:45;10.95;;;6.05;;
75035;SDS011;64247;51.540;5.854;2023-03-19T09:01:49;9.02;;;5.55;;
75035;SDS011;64247;51.540;5.854;2023-03-19T09:03:52;11.80;;;5.90;;
75035;SDS011;64247;51.540;5.854;2023-03-19T09:05:52;12.43;;;6.70;;
75035;SDS011;64247;51.540;5.854;2023-03-19T09:07:57;10.68;;;6.75;;
75035;SDS011;64247;51.540;5.854;2023-03-19T09:09:58;7.32;;;4.57;;
75035;SDS011;64247;51.540;5.854;2023-03-19T09:11:59;11.20;;;5.82;;
75035;SDS011;64247;51.540;5.854;2023-03-19T09:14:01;9.20;;;5.75;;
75035;SDS011;64247;51.540;5.854;2023-03-19T09:16:02;10.20;;;4.80;;
75035;SDS011;64247;51.540;5.854;2023-03-19T09:18:04;8.23;;;4.00;;
75035;SDS011;64247;51.540;5.854;2023-03-19T09:20:05;7.00;;;3.67;;
75035;SDS011;64247;51.540;5.854;2023-03-19T09:22:07;8.70;;;4.10;;
75035;SDS011;64247;51.540;5.854;2023-03-19T09:24:08;6.55;;;2.80;;
75035;SDS011;64247;51.540;5.854;2023-03-19T09:26:08;6.50;;;4.18;;
75035;SDS011;64247;51.540;5.854;2023-03-19T09:28:10;5.85;;;3.95;;
75035;SDS011;64247;51.540;5.854;2023-03-19T09:30:11;12.30;;;4.32;;
75035;SDS011;64247;51.540;5.854;2023-03-19T09:32:13;7.45;;;3.80;;
75035;SDS011;64247;51.540;5.854;2023-03-19T09:34:14;8.00;;;3.42;;
75035;SDS011;64247;51.540;5.854;2023-03-19T09:36:15;6.13;;;2.60;;
75035;SDS011;64247;51.540;5.854;2023-03-19T09:38:17;5.50;;;3.10;;
75035;SDS011;64247;51.540;5.854;2023-03-19T09:40:21;4.82;;;2.75;;
75035;SDS011;64247;51.540;5.854;2023-03-19T09:45:44;5.13;;;2.75;;
75035;SDS011;64247;51.540;5.854;2023-03-19T09:47:48;5.53;;;2.40;;
75035;SDS011;64247;51.540;5.854;2023-03-19T09:49:56;6.32;;;2.92;;
75035;SDS011;64247;51.540;5.854;2023-03-19T09:55:27;2.15;;;1.48;;
75035;SDS011;64247;51.540;5.854;2023-03-19T09:57:40;6.25;;;1.52;;
75035;SDS011;64247;51.540;5.854;2023-03-19T09:59:42;5.43;;;1.75;;
75035;SDS011;64247;51.540;5.854;2023-03-19T10:01:44;5.78;;;3.10;;
75035;SDS011;64247;51.540;5.854;2023-03-19T10:07:56;2.80;;;1.15;;
75035;SDS011;64247;51.540;5.854;2023-03-19T10:20:18;4.25;;;1.77;;
75035;SDS011;64247;51.540;5.854;2023-03-19T10:23:06;4.38;;;1.83;;
75035;SDS011;64247;51.540;5.854;2023-03-19T10:25:37;6.47;;;1.83;;
75035;SDS011;64247;51.540;5.854;2023-03-19T10:27:42;7.05;;;2.58;;
75035;SDS011;64247;51.540;5.854;2023-03-19T10:29:50;6.18;;;2.03;;
75035;SDS011;64247;51.540;5.854;2023-03-19T10:31:55;11.15;;;2.80;;
75035;SDS011;64247;51.540;5.854;2023-03-19T10:34:28;2.92;;;1.33;;
75035;SDS011;64247;51.540;5.854;2023-03-19T10:36:35;4.43;;;2.15;;
75035;SDS011;64247;51.540;5.854;2023-03-19T10:38:40;1.98;;;1.15;;
75035;SDS011;64247;51.540;5.854;2023-03-19T10:40:49;3.08;;;1.50;;
75035;SDS011;64247;51.540;5.854;2023-03-19T10:45:26;4.70;;;1.77;;
75035;SDS011;64247;51.540;5.854;2023-03-19T10:47:34;7.88;;;2.10;;
75035;SDS011;64247;51.540;5.854;2023-03-19T10:49:42;3.88;;;1.45;;
75035;SDS011;64247;51.540;5.854;2023-03-19T10:51:46;4.65;;;1.35;;
75035;SDS011;64247;51.540;5.854;2023-03-19T10:53:51;5.25;;;1.65;;
75035;SDS011;64247;51.540;5.854;2023-03-19T10:55:59;1.80;;;1.13;;
75035;SDS011;64247;51.540;5.854;2023-03-19T10:58:05;5.63;;;2.00;;
75035;SDS011;64247;51.540;5.854;2023-03-19T11:00:18;5.50;;;2.10;;
75035;SDS011;64247;51.540;5.854;2023-03-19T11:02:24;5.82;;;1.80;;
75035;SDS011;64247;51.540;5.854;2023-03-19T11:04:31;7.75;;;2.38;;
75035;SDS011;64247;51.540;5.854;2023-03-19T11:06:33;3.72;;;1.40;;
75035;SDS011;64247;51.540;5.854;2023-03-19T11:08:37;7.38;;;1.67;;
75035;SDS011;64247;51.540;5.854;2023-03-19T11:10:43;2.17;;;1.30;;
75035;SDS011;64247;51.540;5.854;2023-03-19T11:12:51;7.40;;;2.10;;
75035;SDS011;64247;51.540;5.854;2023-03-19T11:14:57;6.78;;;1.70;;
75035;SDS011;64247;51.540;5.854;2023-03-19T11:17:04;7.05;;;2.20;;
75035;SDS011;64247;51.540;5.854;2023-03-19T11:19:51;5.90;;;1.77;;
75035;SDS011;64247;51.540;5.854;2023-03-19T11:22:09;5.10;;;1.30;;
75035;SDS011;64247;51.540;5.854;2023-03-19T11:24:19;3.75;;;1.58;;
75035;SDS011;64247;51.540;5.854;2023-03-19T11:26:20;7.70;;;1.42;;
75035;SDS011;64247;51.540;5.854;2023-03-19T11:28:24;6.53;;;1.45;;
75035;SDS011;64247;51.540;5.854;2023-03-19T11:33:31;5.50;;;2.65;;
75035;SDS011;64247;51.540;5.854;2023-03-19T11:38:42;5.95;;;1.40;;
75035;SDS011;64247;51.540;5.854;2023-03-19T11:48:10;2.85;;;1.20;;
75035;SDS011;64247;51.540;5.854;2023-03-19T11:54:15;5.90;;;0.93;;
75035;SDS011;64247;51.540;5.854;2023-03-19T12:03:21;5.50;;;1.67;;
75035;SDS011;64247;51.540;5.854;2023-03-19T12:15:23;3.90;;;1.63;;
75035;SDS011;64247;51.540;5.854;2023-03-19T12:24:03;6.93;;;1.80;;
75035;SDS011;64247;51.540;5.854;2023-03-19T12:35:55;4.90;;;2.17;;
75035;SDS011;64247;51.540;5.854;2023-03-19T12:41:06;1.73;;;1.52;;
75035;SDS011;64247;51.540;5.854;2023-03-19T12:43:31;3.72;;;1.58;;
75035;SDS011;64247;51.540;5.854;2023-03-19T12:52:22;5.55;;;2.33;;
75035;SDS011;64247;51.540;5.854;2023-03-19T12:54:35;6.07;;;2.25;;
75035;SDS011;64247;51.540;5.854;2023-03-19T12:59:24;4.18;;;2.45;;
75035;SDS011;64247;51.540;5.854;2023-03-19T13:01:41;9.68;;;3.38;;
75035;SDS011;64247;51.540;5.854;2023-03-19T13:06:50;3.95;;;2.88;;
75035;SDS011;64247;51.540;5.854;2023-03-19T13:09:23;5.75;;;2.60;;
75035;SDS011;64247;51.540;5.854;2023-03-19T13:14:31;5.53;;;2.15;;
75035;SDS011;64247;51.540;5.854;2023-03-19T13:17:10;6.30;;;2.08;;
75035;SDS011;64247;51.540;5.854;2023-03-19T13:19:34;6.13;;;1.85;;
75035;SDS011;64247;51.540;5.854;2023-03-19T13:22:02;2.20;;;1.73;;
75035;SDS011;64247;51.540;5.854;2023-03-19T13:26:37;5.82;;;2.35;;
75035;SDS011;64247;51.540;5.854;2023-03-19T13:28:58;7.20;;;2.58;;
75035;SDS011;64247;51.540;5.854;2023-03-19T13:31:58;7.03;;;2.88;;
75035;SDS011;64247;51.540;5.854;2023-03-19T13:33:37;9.40;;;3.70;;
75035;SDS011;64247;51.540;5.854;2023-03-19T13:35:44;10.23;;;3.70;;
75035;SDS011;64247;51.540;5.854;2023-03-19T13:37:53;6.40;;;2.70;;
75035;SDS011;64247;51.540;5.854;2023-03-19T13:40:02;6.22;;;3.40;;
75035;SDS011;64247;51.540;5.854;2023-03-19T13:44:39;7.80;;;2.97;;
75035;SDS011;64247;51.540;5.854;2023-03-19T13:46:47;7.15;;;2.92;;
75035;SDS011;64247;51.540;5.854;2023-03-19T13:48:51;5.32;;;2.92;;
75035;SDS011;64247;51.540;5.854;2023-03-19T13:51:00;6.78;;;3.42;;
75035;SDS011;64247;51.540;5.854;2023-03-19T13:59:24;9.73;;;3.88;;
75035;SDS011;64247;51.540;5.854;2023-03-19T14:01:36;7.93;;;4.00;;
75035;SDS011;64247;51.540;5.854;2023-03-19T14:03:40;6.28;;;4.38;;
75035;SDS011;64247;51.540;5.854;2023-03-19T14:06:04;5.35;;;3.30;;
75035;SDS011;64247;51.540;5.854;2023-03-19T14:08:33;10.57;;;4.32;;
75035;SDS011;64247;51.540;5.854;2023-03-19T14:10:51;7.32;;;4.47;;
75035;SDS011;64247;51.540;5.854;2023-03-19T14:13:00;7.60;;;5.38;;
75035;SDS011;64247;51.540;5.854;2023-03-19T14:15:22;5.90;;;4.05;;
75035;SDS011;64247;51.540;5.854;2023-03-19T14:17:37;4.55;;;3.83;;
75035;SDS011;64247;51.540;5.854;2023-03-19T14:28:14;14.30;;;8.73;;
75035;SDS011;64247;51.540;5.854;2023-03-19T14:30:25;16.63;;;9.05;;